Time;durP1;ratioP1;P1;durP2;ratioP2;P2;SDS_P1;SDS_P2;PMS_P1;PMS_P2;Temp;Humidity;BMP_temperature;BMP_pressure;BME280_temperature;BME280_humidity;BME280_pressure;Samples;Min_cycle;Max_cycle;Signal;HPM_P1;HPM_P2
2023/04/11 00:01:35;;;;;;;1.88;1.77;;;4.80;99.90;;;;;;5211317;28;20033;-71
2023/04/11 00:04:09;;;;;;;1.75;1.60;;;4.70;99.90;;;;;;5231025;28;20035;-69
2023/04/11 00:06:43;;;;;;;6.97;2.75;;;4.50;99.90;;;;;;5172266;28;20048;-70
2023/04/11 00:09:17;;;;;;;3.45;2.75;;;4.40;99.90;;;;;;5178671;28;20029;-68
2023/04/11 00:11:48;;;;;;;2.15;1.95;;;4.30;99.90;;;;;;5197058;28;20226;-72
2023/04/11 00:14:22;;;;;;;3.22;2.45;;;4.40;99.90;;;;;;5214694;28;20040;-70
2023/04/11 00:16:54;;;;;;;4.22;2.17;;;4.50;99.90;;;;;;5185191;28;20044;-70
2023/04/11 00:19:32;;;;;;;2.53;2.08;;;4.50;99.90;;;;;;5216603;28;20029;-71
2023/04/11 00:22:08;;;;;;;1.98;1.88;;;4.50;99.90;;;;;;5214379;28;20033;-70
2023/04/11 00:24:42;;;;;;;2.80;2.33;;;4.50;99.90;;;;;;5199023;28;20451;-70
2023/04/11 00:27:14;;;;;;;4.30;2.88;;;4.60;99.90;;;;;;5213779;28;20353;-71
2023/04/11 00:29:48;;;;;;;2.75;2.55;;;4.50;99.90;;;;;;5200679;28;20033;-69
2023/04/11 00:32:20;;;;;;;;;;;4.50;99.90;;;;;;5211251;28;20036;-71
2023/04/11 00:34:54;;;;;;;2.72;1.98;;;4.50;99.90;;;;;;5216647;28;19940;-71
2023/04/11 00:37:25;;;;;;;3.40;2.85;;;4.60;99.90;;;;;;5198404;28;20047;-69
2023/04/11 00:39:57;;;;;;;4.22;2.60;;;4.70;99.90;;;;;;5227436;28;20024;-70
2023/04/11 00:42:32;;;;;;;1.75;1.65;;;4.60;99.90;;;;;;5198197;28;20028;-69
2023/04/11 00:45:03;;;;;;;2.15;1.95;;;4.60;99.90;;;;;;5200389;28;20371;-71
2023/04/11 00:47:35;;;;;;;1.67;1.50;;;4.40;99.90;;;;;;5227943;28;20354;-70
2023/04/11 00:50:07;;;;;;;2.08;1.95;;;4.30;99.90;;;;;;5191093;28;20029;-73
2023/04/11 00:52:42;;;;;;;3.20;2.80;;;4.40;99.90;;;;;;5212883;28;20035;-72
2023/04/11 00:55:13;;;;;;;;;;;4.40;99.90;;;;;;5192823;28;20043;-72
2023/04/11 00:57:48;;;;;;;2.00;1.80;;;4.40;99.90;;;;;;5206627;28;19908;-73
2023/04/11 01:00:19;;;;;;;;;;;4.50;99.90;;;;;;5215523;28;20044;-72
2023/04/11 01:02:51;;;;;;;1.45;1.35;;;4.50;99.90;;;;;;5258432;22;20233;-70
2023/04/11 01:05:24;;;;;;;2.33;2.13;;;4.60;99.90;;;;;;5079264;28;20064;-72
2023/04/11 01:07:56;;;;;;;2.25;1.77;;;4.60;99.90;;;;;;5091276;28;20043;-70
2023/04/11 01:10:31;;;;;;;1.45;1.25;;;4.60;99.90;;;;;;5108937;28;20268;-72
2023/04/11 01:13:06;;;;;;;2.40;2.20;;;4.40;99.90;;;;;;5120494;28;20037;-70
2023/04/11 01:15:38;;;;;;;3.35;3.05;;;4.20;99.90;;;;;;5081602;28;20257;-71
2023/04/11 01:18:10;;;;;;;2.53;2.33;;;4.10;99.90;;;;;;5092042;28;20032;-73
2023/04/11 01:20:41;;;;;;;1.75;1.50;;;4.10;99.90;;;;;;5074076;28;20039;-70
2023/04/11 01:23:16;;;;;;;0.85;0.85;;;4.10;99.90;;;;;;5103012;29;20027;-70
2023/04/11 01:25:47;;;;;;;2.63;2.17;;;4.10;99.90;;;;;;5095552;28;20043;-73
2023/04/11 01:28:26;;;;;;;1.83;1.73;;;4.20;99.90;;;;;;5117525;28;20027;-73
2023/04/11 01:30:59;;;;;;;2.08;1.92;;;4.10;99.90;;;;;;5110875;28;20031;-71
2023/04/11 01:33:33;;;;;;;2.47;2.28;;;4.00;99.90;;;;;;5100779;28;20037;-72
2023/04/11 01:36:05;;;;;;;2.83;2.65;;;3.90;99.90;;;;;;5109445;28;20045;-73
2023/04/11 01:38:39;;;;;;;2.42;2.22;;;3.90;99.90;;;;;;5115467;28;20346;-71
2023/04/11 01:41:15;;;;;;;1.75;1.65;;;3.90;99.90;;;;;;5165169;28;20322;-72
2023/04/11 01:43:51;;;;;;;2.45;2.13;;;3.90;99.90;;;;;;5096626;28;20046;-69
2023/04/11 01:46:25;;;;;;;3.15;2.53;;;3.90;99.90;;;;;;5082490;28;20038;-72
2023/04/11 01:49:00;;;;;;;2.67;2.47;;;3.80;99.90;;;;;;5152242;28;20034;-71
2023/04/11 01:51:31;;;;;;;3.78;2.13;;;3.70;99.90;;;;;;5157658;28;20029;-72
2023/04/11 01:54:08;;;;;;;3.63;3.35;;;3.50;99.90;;;;;;5062498;29;20035;-73
2023/04/11 01:56:39;;;;;;;2.15;1.88;;;3.50;99.90;;;;;;5104882;28;20043;-72
2023/04/11 01:59:15;;;;;;;2.58;2.30;;;3.50;99.90;;;;;;5093873;28;20262;-73
2023/04/11 02:02:02;;;;;;;1.92;1.83;;;3.60;99.90;;;;;;5143354;28;20052;-72
2023/04/11 02:04:33;;;;;;;2.45;2.25;;;3.60;99.90;;;;;;5128203;28;20051;-70
2023/04/11 02:07:10;;;;;;;2.67;2.05;;;3.60;99.90;;;;;;5079313;28;20048;-73
2023/04/11 02:09:43;;;;;;;1.73;1.63;;;3.70;99.90;;;;;;5091341;28;20038;-73
2023/04/11 02:12:17;;;;;;;2.83;1.83;;;3.60;99.90;;;;;;5098055;28;20031;-72
2023/04/11 02:14:51;;;;;;;2.47;2.28;;;3.50;99.90;;;;;;5097194;28;20035;-70
2023/04/11 02:17:24;;;;;;;1.95;1.83;;;3.70;99.90;;;;;;5060184;28;20039;-72
2023/04/11 02:19:56;;;;;;;3.07;1.77;;;3.80;99.90;;;;;;5074932;29;20256;-71
2023/04/11 02:22:30;;;;;;;1.75;1.65;;;3.90;99.90;;;;;;5097157;29;20266;-72
2023/04/11 02:25:02;;;;;;;1.02;1.02;;;3.70;99.90;;;;;;5087530;28;20046;-71
2023/04/11 02:27:33;;;;;;;3.97;2.45;;;3.70;99.90;;;;;;5081483;28;20320;-71
2023/04/11 02:30:08;;;;;;;3.00;2.75;;;3.80;99.90;;;;;;5074500;28;20050;-74
2023/04/11 02:32:39;;;;;;;1.63;1.52;;;3.80;99.90;;;;;;5058881;28;20043;-72
2023/04/11 02:35:11;;;;;;;1.13;1.13;;;3.70;99.90;;;;;;5094111;28;20471;-72
2023/04/11 02:37:42;;;;;;;1.58;1.48;;;3.60;99.90;;;;;;5081292;28;20483;-70
2023/04/11 02:40:14;;;;;;;1.88;1.77;;;3.50;99.90;;;;;;5078503;28;20488;-72
2023/04/11 02:42:45;;;;;;;2.42;2.22;;;3.50;99.90;;;;;;5070630;28;20043;-73
2023/04/11 02:45:16;;;;;;;2.60;2.05;;;3.50;99.90;;;;;;5081137;28;20035;-71
2023/04/11 02:47:53;;;;;;;1.80;1.70;;;3.50;99.90;;;;;;5124865;28;20566;-72
2023/04/11 02:50:27;;;;;;;2.25;2.08;;;3.40;99.90;;;;;;5070712;28;20040;-66
2023/04/11 02:53:15;;;;;;;2.20;1.45;;;3.40;99.90;;;;;;5058518;28;20073;-72
2023/04/11 02:55:46;;;;;;;1.35;1.25;;;3.40;99.90;;;;;;5088361;28;20025;-73
2023/04/11 02:58:18;;;;;;;1.27;1.17;;;3.50;99.90;;;;;;5142224;28;20046;-71
2023/04/11 03:00:52;;;;;;;2.45;2.25;;;3.60;99.90;;;;;;5083160;29;20032;-73
2023/04/11 03:03:26;;;;;;;2.28;2.15;;;3.70;99.90;;;;;;5143077;28;20039;-71
2023/04/11 03:05:57;;;;;;;2.53;2.33;;;3.80;99.90;;;;;;5090099;28;20044;-71
2023/04/11 03:08:30;;;;;;;2.17;1.77;;;3.90;99.90;;;;;;5094403;28;20045;-71
2023/04/11 03:11:07;;;;;;;1.33;1.08;;;3.90;99.90;;;;;;5104080;28;20032;-72
2023/04/11 03:13:43;;;;;;;2.58;1.90;;;4.00;99.90;;;;;;5175858;28;20443;-75
2023/04/11 03:16:16;;;;;;;2.45;2.25;;;4.00;99.90;;;;;;5174973;28;20034;-71
2023/04/11 03:18:52;;;;;;;2.05;1.88;;;4.10;99.90;;;;;;5168249;28;20043;-73
2023/04/11 03:21:24;;;;;;;1.40;1.17;;;4.10;99.90;;;;;;5078002;28;20032;-71
2023/04/11 03:24:01;;;;;;;3.00;2.80;;;4.10;99.90;;;;;;5135042;28;20046;-70
2023/04/11 03:26:33;;;;;;;2.30;1.50;;;4.10;99.90;;;;;;5105963;28;20035;-72
2023/04/11 03:29:07;;;;;;;3.08;2.60;;;4.10;99.90;;;;;;5087664;28;20055;-72
2023/04/11 03:31:38;;;;;;;2.00;1.90;;;4.10;99.90;;;;;;5093945;29;20027;-72
2023/04/11 03:34:11;;;;;;;1.42;1.42;;;4.10;99.90;;;;;;5157410;28;20039;-71
2023/04/11 03:36:42;;;;;;;2.65;2.45;;;4.10;99.90;;;;;;5080085;28;20027;-70
2023/04/11 03:39:14;;;;;;;1.65;1.55;;;4.20;99.90;;;;;;5062630;29;20075;-72
2023/04/11 03:41:47;;;;;;;1.92;1.73;;;4.20;99.90;;;;;;5169597;28;20186;-70
2023/04/11 03:44:24;;;;;;;2.53;2.33;;;4.30;99.90;;;;;;5066457;29;20036;-71
2023/04/11 03:46:58;;;;;;;2.45;2.25;;;4.30;99.90;;;;;;5076036;28;20409;-72
2023/04/11 03:49:29;;;;;;;2.42;2.00;;;4.20;99.90;;;;;;5093008;28;20019;-72
2023/04/11 03:52:01;;;;;;;1.85;1.58;;;4.10;99.90;;;;;;5094375;29;20039;-69
2023/04/11 03:54:36;;;;;;;2.25;2.05;;;3.80;99.90;;;;;;5112167;28;20455;-69
2023/04/11 03:57:15;;;;;;;2.97;2.53;;;3.70;99.90;;;;;;5097983;29;20066;-69
2023/04/11 03:59:46;;;;;;;3.05;2.67;;;3.70;99.90;;;;;;5056749;28;20044;-72
2023/04/11 04:02:20;;;;;;;2.55;2.35;;;3.80;99.90;;;;;;5105597;28;20033;-73
2023/04/11 04:04:57;;;;;;;2.25;2.10;;;3.80;99.90;;;;;;5185375;28;20072;-72
2023/04/11 04:07:30;;;;;;;3.00;2.80;;;3.80;99.90;;;;;;5177791;28;20048;-72
2023/04/11 04:10:07;;;;;;;3.80;2.80;;;3.90;99.90;;;;;;5076498;28;20039;-73
2023/04/11 04:12:39;;;;;;;3.42;2.40;;;3.70;99.90;;;;;;5075623;28;20047;-72
2023/04/11 04:15:16;;;;;;;1.83;1.73;;;3.70;99.90;;;;;;5076216;28;20522;-70
2023/04/11 04:17:50;;;;;;;1.90;1.80;;;3.70;99.90;;;;;;5094293;28;20361;-73
2023/04/11 04:20:26;;;;;;;3.08;2.85;;;3.70;99.90;;;;;;5080021;28;20428;-71
2023/04/11 04:22:58;;;;;;;3.40;2.63;;;3.80;99.90;;;;;;5155365;28;20339;-74
2023/04/11 04:25:30;;;;;;;3.00;2.63;;;3.90;99.90;;;;;;5088314;29;20038;-71
2023/04/11 04:28:06;;;;;;;2.30;2.08;;;3.90;99.90;;;;;;5068717;28;20046;-73
2023/04/11 04:30:38;;;;;;;2.08;1.17;;;4.00;99.90;;;;;;5111159;28;20039;-71
2023/04/11 04:33:14;;;;;;;2.25;2.10;;;4.00;99.90;;;;;;5131234;28;20023;-72
2023/04/11 04:35:45;;;;;;;3.63;2.80;;;4.00;99.90;;;;;;5111754;29;20019;-70
2023/04/11 04:38:21;;;;;;;2.25;2.10;;;4.10;99.90;;;;;;5130750;28;20231;-72
2023/04/11 04:40:55;;;;;;;9.15;3.17;;;4.30;99.90;;;;;;5078071;28;20041;-71
2023/04/11 04:43:31;;;;;;;2.50;2.40;;;4.40;99.90;;;;;;5110069;28;20454;-72
2023/04/11 04:46:02;;;;;;;6.40;3.65;;;4.40;99.90;;;;;;5059892;28;20024;-72
2023/04/11 04:48:35;;;;;;;4.28;3.90;;;4.40;99.90;;;;;;5077920;28;20047;-73
2023/04/11 04:51:12;;;;;;;34.28;31.30;;;4.50;99.90;;;;;;5146952;28;20042;-71
2023/04/11 04:53:46;;;;;;;18.63;17.10;;;4.70;99.90;;;;;;5153421;28;20037;-71
2023/04/11 04:56:27;;;;;;;4.18;3.78;;;4.90;99.90;;;;;;5147462;28;20039;-71
2023/04/11 04:59:06;;;;;;;4.55;4.15;;;5.10;99.90;;;;;;5101742;28;20039;-68
2023/04/11 05:01:41;;;;;;;3.00;2.78;;;5.10;99.90;;;;;;5154170;28;20048;-70
2023/04/11 05:04:12;;;;;;;;;;;5.10;99.90;;;;;;5054387;28;20036;-71
2023/04/11 05:06:44;;;;;;;2.22;2.13;;;5.10;99.90;;;;;;5088974;28;19914;-70
2023/04/11 05:09:15;;;;;;;3.17;2.85;;;5.20;99.90;;;;;;5108777;28;20040;-69
2023/04/11 05:11:49;;;;;;;3.58;2.58;;;5.30;99.90;;;;;;5085831;28;20249;-71
2023/04/11 05:14:26;;;;;;;4.28;2.25;;;5.40;99.90;;;;;;5075886;28;20040;-71
2023/04/11 05:17:00;;;;;;;2.20;2.00;;;5.50;99.90;;;;;;5143588;28;20061;-69
2023/04/11 05:19:35;;;;;;;26.45;22.08;;;5.60;99.90;;;;;;5137871;28;20364;-72
2023/04/11 05:22:07;;;;;;;24.88;21.77;;;5.80;99.90;;;;;;5166954;28;20143;-72
2023/04/11 05:24:42;;;;;;;24.17;22.05;;;6.00;99.90;;;;;;5112453;28;20053;-71
2023/04/11 05:27:15;;;;;;;98.43;90.18;;;6.00;99.90;;;;;;5113549;28;20043;-72
2023/04/11 05:29:46;;;;;;;4.50;4.10;;;5.90;99.90;;;;;;5141266;28;20357;-71
2023/04/11 05:32:22;;;;;;;4.28;3.92;;;6.00;99.90;;;;;;5109657;28;20351;-70
2023/04/11 05:34:57;;;;;;;7.10;6.43;;;6.20;99.90;;;;;;5100079;28;20036;-71
2023/04/11 05:37:31;;;;;;;3.38;3.08;;;6.20;99.90;;;;;;5111274;28;20041;-71
2023/04/11 05:40:07;;;;;;;9.48;8.27;;;6.20;99.90;;;;;;5165488;28;20138;-71
2023/04/11 05:42:38;;;;;;;5.13;3.85;;;6.20;99.90;;;;;;5104787;28;20039;-71
2023/04/11 05:45:10;;;;;;;4.18;3.03;;;6.10;99.90;;;;;;5100273;28;20035;-71
2023/04/11 05:47:44;;;;;;;5.30;2.67;;;6.30;99.90;;;;;;5167732;28;20024;-72
2023/04/11 05:50:21;;;;;;;5.38;3.70;;;6.40;99.90;;;;;;5141168;28;20040;-72
2023/04/11 05:52:52;;;;;;;3.80;3.50;;;6.60;99.90;;;;;;5037389;29;20046;-72
2023/04/11 05:55:24;;;;;;;3.17;2.95;;;6.70;99.90;;;;;;5071426;28;20036;-71
2023/04/11 05:57:58;;;;;;;3.85;3.15;;;6.60;99.90;;;;;;5073601;28;20220;-68
2023/04/11 06:00:32;;;;;;;2.63;2.42;;;6.70;99.90;;;;;;5174626;28;20031;-71
2023/04/11 06:03:09;;;;;;;2.78;2.45;;;6.70;99.90;;;;;;5113147;28;20331;-72
2023/04/11 06:05:40;;;;;;;4.65;2.25;;;6.70;99.90;;;;;;5080466;28;20055;-70
2023/04/11 06:08:11;;;;;;;3.88;3.08;;;6.80;99.90;;;;;;5088009;29;20035;-71
2023/04/11 06:10:42;;;;;;;2.67;2.47;;;7.10;99.90;;;;;;5076981;28;20054;-73
2023/04/11 06:13:18;;;;;;;2.85;2.28;;;7.20;99.90;;;;;;5099210;28;20031;-70
2023/04/11 06:15:49;;;;;;;3.28;2.88;;;7.30;99.90;;;;;;5065617;28;20027;-71
2023/04/11 06:18:23;;;;;;;6.70;4.22;;;7.40;99.90;;;;;;5095817;29;20354;-71
2023/04/11 06:20:55;;;;;;;3.45;2.78;;;7.60;99.90;;;;;;5068558;28;20052;-71
2023/04/11 06:23:29;;;;;;;4.40;3.10;;;7.80;99.90;;;;;;5088032;28;20314;-70
2023/04/11 06:26:00;;;;;;;5.78;3.70;;;8.20;99.90;;;;;;5179189;28;20032;-70
2023/04/11 06:28:34;;;;;;;3.13;2.50;;;8.40;99.90;;;;;;5090790;29;20216;-70
2023/04/11 06:31:10;;;;;;;3.53;2.77;;;8.60;99.90;;;;;;5104659;28;20044;-73
2023/04/11 06:33:41;;;;;;;3.63;3.28;;;9.00;99.90;;;;;;5100001;28;20046;-72
2023/04/11 06:36:13;;;;;;;5.75;3.53;;;9.20;99.90;;;;;;5107085;28;20042;-70
2023/04/11 06:38:46;;;;;;;4.97;3.60;;;9.10;99.90;;;;;;5089912;28;20304;-72
2023/04/11 06:41:17;;;;;;;4.38;3.53;;;9.10;99.90;;;;;;5132412;28;20044;-71
2023/04/11 06:43:51;;;;;;;6.88;3.42;;;9.30;99.90;;;;;;5121348;28;20032;-72
2023/04/11 06:46:22;;;;;;;4.68;3.13;;;9.30;99.90;;;;;;5100615;28;20046;-72
2023/04/11 06:48:58;;;;;;;4.95;3.38;;;9.30;99.90;;;;;;5178841;28;20037;-71
2023/04/11 06:51:30;;;;;;;8.23;5.30;;;9.30;99.90;;;;;;5093455;28;20035;-69
2023/04/11 06:54:02;;;;;;;5.10;3.78;;;9.20;99.90;;;;;;5090472;28;20134;-72
2023/04/11 06:56:34;;;;;;;4.78;4.15;;;9.20;99.90;;;;;;5071116;28;20032;-71
2023/04/11 06:59:08;;;;;;;4.97;3.67;;;9.30;99.90;;;;;;5110289;28;20034;-70
2023/04/11 07:01:39;;;;;;;4.22;3.75;;;9.60;99.90;;;;;;5086325;28;20039;-71
2023/04/11 07:04:11;;;;;;;8.13;4.40;;;9.90;99.90;;;;;;5163166;28;20244;-71
2023/04/11 07:06:45;;;;;;;3.92;3.00;;;10.40;99.90;;;;;;5190405;28;20291;-70
2023/04/11 07:09:16;;;;;;;;;;;10.80;99.90;;;;;;5080473;28;20152;-71
2023/04/11 07:11:48;;;;;;;4.53;3.63;;;11.20;99.90;;;;;;5166150;28;19913;-69
2023/04/11 07:14:21;;;;;;;36.10;29.33;;;11.20;99.90;;;;;;5138049;28;20023;-72
2023/04/11 07:16:52;;;;;;;154.13;69.55;;;11.70;99.90;;;;;;5077237;28;20235;-69
2023/04/11 07:19:24;;;;;;;28.98;19.25;;;12.20;99.90;;;;;;5090430;28;20023;-71
2023/04/11 07:21:55;;;;;;;40.88;22.30;;;12.70;99.90;;;;;;5089675;29;20028;-71
2023/04/11 07:24:29;;;;;;;19.63;13.60;;;13.00;99.90;;;;;;5089243;28;20311;-71
2023/04/11 07:27:00;;;;;;;73.63;45.55;;;13.10;99.90;;;;;;5116665;28;20025;-69
2023/04/11 07:29:32;;;;;;;23.00;16.50;;;13.20;99.90;;;;;;5096289;28;20276;-71
2023/04/11 07:32:05;;;;;;;11.40;7.70;;;13.10;99.90;;;;;;5101112;28;20118;-73
2023/04/11 07:34:39;;;;;;;5.90;4.40;;;13.00;99.90;;;;;;5093005;29;20294;-70
2023/04/11 07:37:15;;;;;;;8.13;5.22;;;12.80;99.90;;;;;;5172742;28;20503;-67
2023/04/11 07:39:50;;;;;;;7.32;4.40;;;12.50;99.90;;;;;;5092940;29;20036;-70
2023/04/11 07:42:22;;;;;;;8.82;5.72;;;12.80;99.90;;;;;;5116371;28;20372;-71
2023/04/11 07:44:55;;;;;;;4.50;3.85;;;13.00;99.90;;;;;;5112473;28;20024;-72
2023/04/11 07:47:26;;;;;;;4.63;3.92;;;13.20;99.90;;;;;;5146039;28;20269;-71
2023/04/11 07:49:58;;;;;;;5.43;3.78;;;13.30;99.90;;;;;;5111929;28;20243;-71
2023/04/11 07:52:32;;;;;;;6.43;4.80;;;13.30;99.90;;;;;;5075277;28;20038;-72
2023/04/11 07:55:04;;;;;;;8.02;6.65;;;13.10;99.90;;;;;;5071544;28;20032;-72
2023/04/11 07:57:38;;;;;;;7.00;4.80;;;13.10;99.90;;;;;;5077532;28;20037;-71
2023/04/11 08:00:19;;;;;;;6.38;4.40;;;13.10;99.90;;;;;;5129507;28;20174;-70
2023/04/11 08:02:51;;;;;;;5.55;4.68;;;13.30;99.90;;;;;;5108917;28;20285;-73
2023/04/11 08:05:22;;;;;;;7.85;7.15;;;13.50;99.90;;;;;;5108198;28;20037;-70
2023/04/11 08:07:56;;;;;;;5.50;4.78;;;13.60;99.90;;;;;;5099598;28;20045;-70
2023/04/11 08:10:27;;;;;;;5.82;4.85;;;13.70;99.90;;;;;;5094125;28;20030;-71
2023/04/11 08:13:00;;;;;;;6.72;5.30;;;14.00;99.90;;;;;;5089165;28;20352;-70
2023/04/11 08:15:33;;;;;;;4.68;3.92;;;14.10;99.90;;;;;;5074599;28;20031;-71
2023/04/11 08:18:04;;;;;;;6.10;4.32;;;14.00;99.90;;;;;;5154234;28;20334;-71
2023/04/11 08:20:39;;;;;;;6.65;3.33;;;14.00;99.90;;;;;;5099175;28;20027;-69
2023/04/11 08:23:10;;;;;;;8.10;6.38;;;14.00;99.90;;;;;;5070533;28;20048;-70
2023/04/11 08:25:41;;;;;;;4.50;3.72;;;14.20;99.90;;;;;;5105345;28;20212;-70
2023/04/11 08:28:14;;;;;;;7.05;4.45;;;14.40;99.90;;;;;;5151595;28;20051;-71
2023/04/11 08:30:45;;;;;;;6.75;5.18;;;14.50;99.90;;;;;;5110579;28;20025;-71
2023/04/11 08:33:16;;;;;;;7.60;5.38;;;14.70;99.90;;;;;;5089088;28;20036;-69
2023/04/11 08:35:50;;;;;;;5.88;4.47;;;14.60;99.90;;;;;;5069899;29;20024;-71
2023/04/11 08:38:24;;;;;;;9.73;4.97;;;14.00;99.90;;;;;;5069712;28;20216;-68
2023/04/11 08:41:00;;;;;;;5.33;4.43;;;14.20;99.90;;;;;;5091323;28;20162;-69
2023/04/11 08:43:36;;;;;;;6.25;4.60;;;14.50;99.90;;;;;;5090347;29;20041;-71
2023/04/11 08:46:07;;;;;;;4.85;4.28;;;14.90;99.90;;;;;;5088025;28;20027;-69
2023/04/11 08:48:41;;;;;;;6.40;4.60;;;15.20;99.90;;;;;;5112611;28;20552;-70
2023/04/11 08:51:13;;;;;;;9.18;6.07;;;15.40;99.90;;;;;;5057781;28;20201;-69
2023/04/11 08:53:44;;;;;;;6.03;4.60;;;15.50;99.90;;;;;;5096552;28;20469;-71
2023/04/11 08:56:21;;;;;;;23.45;16.02;;;15.40;99.90;;;;;;5074743;28;20231;-70
2023/04/11 08:58:52;;;;;;;50.33;38.20;;;15.50;99.90;;;;;;5173180;28;20037;-68
2023/04/11 09:01:35;;;;;;;10.02;7.75;;;15.50;99.90;;;;;;5140988;28;20019;-68
2023/04/11 09:04:07;;;;;;;6.75;5.70;;;15.50;99.90;;;;;;5084273;28;20323;-74
2023/04/11 09:06:38;;;;;;;7.63;6.78;;;15.00;99.90;;;;;;5089237;28;20037;-70
2023/04/11 09:09:27;;;;;;;29.08;26.17;;;13.70;99.90;;;;;;5098564;28;20039;-70
2023/04/11 09:12:02;;;;;;;5.20;4.10;;;13.60;99.90;;;;;;5074268;28;20567;-70
2023/04/11 09:14:36;;;;;;;1.65;1.55;;;13.40;99.90;;;;;;5088626;28;20026;-69
2023/04/11 09:17:15;;;;;;;6.75;5.03;;;13.40;99.90;;;;;;5134480;28;20039;-72
2023/04/11 09:19:46;;;;;;;1.13;1.13;;;12.50;99.90;;;;;;5071379;28;20240;-70
2023/04/11 09:22:18;;;;;;;1.23;1.17;;;12.50;99.90;;;;;;5126135;28;20285;-74
2023/04/11 09:25:03;;;;;;;1.20;1.20;;;12.60;99.90;;;;;;5134097;28;20051;-71
2023/04/11 09:27:37;;;;;;;0.82;0.82;;;12.50;99.90;;;;;;5105422;28;20328;-71
2023/04/11 09:30:22;;;;;;;0.90;0.90;;;12.20;99.90;;;;;;5084158;28;20055;-74
2023/04/11 09:32:56;;;;;;;1.05;1.05;;;11.90;99.90;;;;;;5146247;28;20024;-76
2023/04/11 09:35:30;;;;;;;1.33;1.00;;;11.80;99.90;;;;;;5096960;28;20042;-74
2023/04/11 09:38:03;;;;;;;1.17;1.15;;;11.80;99.90;;;;;;5157046;28;20038;-75
2023/04/11 09:40:41;;;;;;;0.90;0.90;;;11.80;99.90;;;;;;5061584;28;20035;-73
2023/04/11 09:43:15;;;;;;;1.10;1.10;;;11.80;99.90;;;;;;5092683;28;20622;-72
2023/04/11 09:45:46;;;;;;;1.65;1.55;;;11.90;99.90;;;;;;5090445;28;20032;-71
2023/04/11 09:48:18;;;;;;;3.22;2.78;;;12.00;99.90;;;;;;5092928;29;20517;-72
2023/04/11 09:50:50;;;;;;;2.33;1.80;;;12.10;99.90;;;;;;5093405;28;20041;-75
2023/04/11 09:53:22;;;;;;;1.95;1.85;;;12.10;99.90;;;;;;5091919;28;20039;-72
2023/04/11 09:55:56;;;;;;;0.80;0.80;;;12.10;99.90;;;;;;5097234;28;20031;-71
2023/04/11 09:58:32;;;;;;;1.73;1.63;;;12.20;99.90;;;;;;5110179;28;20027;-71
2023/04/11 10:01:06;;;;;;;67.93;52.08;;;12.20;99.90;;;;;;5111686;28;20037;-72
2023/04/11 10:03:38;;;;;;;59.03;47.00;;;12.30;99.90;;;;;;5089852;28;20372;-74
2023/04/11 10:06:21;;;;;;;68.88;53.45;;;12.20;99.90;;;;;;5089581;28;20049;-74
2023/04/11 10:08:52;;;;;;;8.20;6.78;;;12.10;99.90;;;;;;5106107;29;20050;-77
2023/04/11 10:11:23;;;;;;;6.53;2.95;;;11.90;99.90;;;;;;5089773;29;20032;-74
2023/04/11 10:13:57;;;;;;;2.92;2.42;;;12.00;99.90;;;;;;5101762;28;20141;-72
2023/04/11 10:16:32;;;;;;;7.30;6.38;;;12.20;99.90;;;;;;5087745;29;20047;-74
2023/04/11 10:19:04;;;;;;;5.75;4.97;;;12.30;99.90;;;;;;5177319;28;20235;-75
2023/04/11 10:21:41;;;;;;;40.15;26.75;;;12.20;99.90;;;;;;5101040;28;20031;-75
2023/04/11 10:24:15;;;;;;;9.23;6.40;;;12.00;99.90;;;;;;5085318;28;20031;-74
2023/04/11 10:26:56;;;;;;;62.72;42.40;;;12.10;99.90;;;;;;5100050;28;20526;-76
2023/04/11 10:29:39;;;;;;;8.88;7.53;;;12.50;99.90;;;;;;5086449;29;20039;-74
2023/04/11 10:32:18;;;;;;;17.70;13.25;;;13.00;99.90;;;;;;5095757;28;20552;-74
2023/04/11 10:34:52;;;;;;;14.77;9.25;;;13.30;99.90;;;;;;5091599;28;20046;-74
2023/04/11 10:37:29;;;;;;;12.27;9.00;;;13.30;99.90;;;;;;5091335;28;20347;-75
2023/04/11 10:40:10;;;;;;;3.30;3.00;;;13.50;99.90;;;;;;5074040;29;20047;-77
2023/04/11 10:42:43;;;;;;;18.27;10.27;;;13.80;99.90;;;;;;5073998;28;20035;-73
2023/04/11 10:45:27;;;;;;;6.32;3.53;;;13.70;99.90;;;;;;5089332;29;20037;-71
2023/04/11 10:48:04;;;;;;;18.23;10.98;;;13.70;99.90;;;;;;5092559;28;20031;-72
2023/04/11 10:50:40;;;;;;;74.60;46.63;;;13.50;99.90;;;;;;5131230;28;20510;-72
2023/04/11 10:53:41;;;;;;;5.03;4.47;;;13.30;99.90;;;;;;5101401;28;20053;-72
2023/04/11 10:56:12;;;;;;;5.70;4.88;;;13.00;99.90;;;;;;5115931;28;20423;-71
2023/04/11 10:58:48;;;;;;;6.72;5.22;;;12.80;99.90;;;;;;5082380;28;20070;-70
2023/04/11 11:01:22;;;;;;;13.30;9.90;;;12.80;99.90;;;;;;5085166;28;20035;-73
2023/04/11 11:03:55;;;;;;;6.72;5.97;;;12.80;99.90;;;;;;5094982;28;20051;-72
2023/04/11 11:06:29;;;;;;;5.78;5.15;;;12.90;99.90;;;;;;5124890;28;20410;-72
2023/04/11 11:09:22;;;;;;;7.97;7.13;;;13.10;99.90;;;;;;5095066;28;20511;-71
2023/04/11 11:12:15;;;;;;;6.40;4.65;;;13.10;99.90;;;;;;5103948;28;20554;-72
2023/04/11 11:14:46;;;;;;;7.97;5.70;;;13.10;99.90;;;;;;5104229;29;20035;-72
2023/04/11 11:17:20;;;;;;;4.80;4.28;;;12.90;99.90;;;;;;5112081;28;20037;-72
2023/04/11 11:19:55;;;;;;;7.55;4.97;;;12.90;99.90;;;;;;5083106;28;20040;-70
2023/04/11 11:22:27;;;;;;;6.70;5.95;;;13.00;99.90;;;;;;5095281;29;20042;-71
2023/04/11 11:25:07;;;;;;;12.32;7.82;;;13.20;99.90;;;;;;5135416;28;20635;-71
2023/04/11 11:27:41;;;;;;;13.80;9.05;;;13.30;99.90;;;;;;5098063;28;20036;-70
2023/04/11 11:30:13;;;;;;;530.08;340.35;;;13.40;99.90;;;;;;5122986;28;20712;-70
2023/04/11 11:32:44;;;;;;;95.60;53.10;;;13.40;99.90;;;;;;5072414;28;20050;-70
2023/04/11 11:35:20;;;;;;;15.75;10.82;;;13.40;99.90;;;;;;5080995;28;20028;-70
2023/04/11 11:37:53;;;;;;;83.50;46.17;;;13.30;99.90;;;;;;5073125;28;20036;-69
2023/04/11 11:40:24;;;;;;;90.50;61.45;;;13.00;99.90;;;;;;5087664;29;20050;-70
2023/04/11 11:42:58;;;;;;;29.50;22.77;;;13.00;99.90;;;;;;5088016;29;20028;-69
2023/04/11 11:45:32;;;;;;;8.32;6.90;;;13.00;99.90;;;;;;5082911;28;20032;-68
2023/04/11 11:48:09;;;;;;;6.88;4.30;;;13.10;99.90;;;;;;5100819;28;20062;-69
2023/04/11 11:50:43;;;;;;;4.90;4.38;;;13.20;99.90;;;;;;5073774;28;20031;-69
2023/04/11 11:53:15;;;;;;;5.30;4.78;;;13.30;99.90;;;;;;5099056;28;20213;-71
2023/04/11 11:55:46;;;;;;;7.53;5.63;;;13.60;99.90;;;;;;5071057;29;20043;-69
2023/04/11 11:58:20;;;;;;;7.43;6.43;;;13.90;99.90;;;;;;5070723;28;20043;-71
2023/04/11 12:00:55;;;;;;;18.90;15.95;;;13.90;99.90;;;;;;5162968;28;20057;-70
2023/04/11 12:03:28;;;;;;;7.78;6.97;;;13.50;99.90;;;;;;5089613;28;20038;-69
2023/04/11 12:06:00;;;;;;;2.45;1.75;;;13.40;99.90;;;;;;5093145;28;20062;-70
2023/04/11 12:08:39;;;;;;;2.55;2.08;;;12.80;99.90;;;;;;5082411;29;20046;-72
2023/04/11 12:11:14;;;;;;;1.63;1.52;;;12.70;99.90;;;;;;5073208;28;20050;-74
2023/04/11 12:13:53;;;;;;;4.22;2.45;;;12.50;99.90;;;;;;5105979;29;20511;-72
2023/04/11 12:16:28;;;;;;;0.95;0.95;;;12.60;99.90;;;;;;5069326;28;20050;-72
2023/04/11 12:19:06;;;;;;;1.20;1.20;;;12.40;99.90;;;;;;5155930;28;20494;-73
2023/04/11 12:21:37;;;;;;;1.10;1.10;;;12.70;99.90;;;;;;5074576;28;20028;-72
2023/04/11 12:24:13;;;;;;;0.98;0.98;;;12.80;99.90;;;;;;5070709;28;20043;-74
2023/04/11 12:26:46;;;;;;;1.30;1.30;;;12.70;99.90;;;;;;5084297;28;20145;-72
2023/04/11 12:29:20;;;;;;;0.93;0.93;;;12.70;99.90;;;;;;5107211;29;20482;-74
2023/04/11 12:31:51;;;;;;;4.55;3.20;;;12.40;99.90;;;;;;5092259;28;20588;-72
2023/04/11 12:34:28;;;;;;;1.65;1.55;;;12.30;99.90;;;;;;5159923;28;20035;-76
2023/04/11 12:36:59;;;;;;;2.25;1.85;;;12.40;99.90;;;;;;5109806;28;20031;-73
2023/04/11 12:39:31;;;;;;;3.42;2.72;;;12.50;99.90;;;;;;5093099;28;20045;-72
2023/04/11 12:42:02;;;;;;;0.73;0.73;;;12.80;99.90;;;;;;5104592;28;20498;-72
2023/04/11 12:44:33;;;;;;;1.15;1.13;;;12.90;99.90;;;;;;5093169;28;20091;-71
2023/04/11 12:47:05;;;;;;;1.38;1.05;;;12.80;99.90;;;;;;5074806;28;20274;-70
2023/04/11 12:49:36;;;;;;;0.85;0.85;;;12.80;99.90;;;;;;5097813;28;20039;-71
2023/04/11 12:52:10;;;;;;;1.10;1.10;;;12.90;99.90;;;;;;5090103;28;20032;-69
2023/04/11 12:54:41;;;;;;;1.27;1.17;;;13.00;99.90;;;;;;5128582;28;20038;-71
2023/04/11 12:57:12;;;;;;;1.13;1.02;;;13.20;99.90;;;;;;5096241;28;20040;-72
2023/04/11 12:59:43;;;;;;;0.80;0.80;;;13.40;99.90;;;;;;5158618;28;20113;-71
2023/04/11 13:02:15;;;;;;;3.47;0.95;;;13.50;99.90;;;;;;5162821;28;20065;-70
2023/04/11 13:04:52;;;;;;;1.05;1.05;;;13.50;99.90;;;;;;5066099;29;20052;-71
2023/04/11 13:07:23;;;;;;;1.00;1.00;;;13.70;99.90;;;;;;5095069;28;20048;-71
2023/04/11 13:09:55;;;;;;;0.85;0.85;;;13.70;99.90;;;;;;5083438;28;20039;-69
2023/04/11 13:12:28;;;;;;;1.02;1.02;;;13.50;99.90;;;;;;5153906;28;20048;-68
2023/04/11 13:15:01;;;;;;;0.82;0.82;;;13.40;99.90;;;;;;5121736;28;20043;-68
2023/04/11 13:17:35;;;;;;;0.80;0.80;;;13.20;99.90;;;;;;5157562;28;20028;-68
2023/04/11 13:20:08;;;;;;;2.57;2.40;;;13.10;99.90;;;;;;5116783;28;20041;-69
2023/04/11 13:22:43;;;;;;;1.20;1.10;;;12.70;99.90;;;;;;5135286;28;20040;-69
2023/04/11 13:25:14;;;;;;;1.13;1.13;;;12.50;99.90;;;;;;5081560;28;20293;-71